Time;durP1;ratioP1;P1;durP2;ratioP2;P2;SDS_P1;SDS_P2;PMS_P1;PMS_P2;Temp;Humidity;BMP_temperature;BMP_pressure;BME280_temperature;BME280_humidity;BME280_pressure;Samples;Min_cycle;Max_cycle;Signal;HPM_P1;HPM_P2
2021/10/28 00:16:47;;;;;;;14.57;11.68;;;;;;;9.41;100.00;101926.03;10623410;28;20502;-59
2021/10/28 00:21:50;;;;;;;14.45;10.27;;;;;;;9.63;100.00;101927.00;10623860;28;20078;-61
2021/10/28 00:26:52;;;;;;;17.15;12.82;;;;;;;9.28;100.00;101926.44;10623938;28;20050;-60
2021/10/28 00:31:58;;;;;;;17.35;11.30;;;;;;;9.37;100.00;101921.81;10622846;28;20055;-59
2021/10/28 00:37:01;;;;;;;19.85;11.82;;;;;;;9.38;100.00;101921.75;10626683;27;20516;-61
2021/10/28 00:42:04;;;;;;;14.60;11.40;;;;;;;9.37;100.00;101920.03;10612958;27;20479;-61
2021/10/28 00:47:08;;;;;;;17.30;12.05;;;;;;;9.20;100.00;101925.84;10612485;27;20051;-60
2021/10/28 00:52:10;;;;;;;17.23;12.20;;;;;;;9.23;100.00;101924.88;10629853;27;20047;-59
2021/10/28 00:57:13;;;;;;;18.70;13.20;;;;;;;9.21;100.00;101922.34;10630358;27;20159;-61
2021/10/28 01:02:16;;;;;;;21.00;12.98;;;;;;;9.28;100.00;101923.84;10629721;27;20058;-60
2021/10/28 01:07:19;;;;;;;18.67;12.07;;;;;;;9.11;100.00;101919.19;10629663;27;20051;-61
2021/10/28 01:12:22;;;;;;;16.95;12.00;;;;;;;9.08;100.00;101919.28;10629178;27;20079;-59
2021/10/28 01:17:24;;;;;;;20.05;12.75;;;;;;;8.92;100.00;101915.44;10629463;27;20130;-59
2021/10/28 01:22:27;;;;;;;18.05;11.32;;;;;;;9.04;100.00;101914.19;10629031;27;20047;-60
2021/10/28 01:27:29;;;;;;;15.90;11.93;;;;;;;8.98;100.00;101915.25;10629048;27;20054;-59
2021/10/28 01:32:32;;;;;;;15.02;12.50;;;;;;;8.87;100.00;101912.13;10628323;27;20047;-58
2021/10/28 01:37:34;;;;;;;25.17;15.82;;;;;;;8.86;100.00;101907.81;10628977;27;20050;-59
2021/10/28 01:42:39;;;;;;;24.48;13.57;;;;;;;8.78;100.00;101912.44;10610352;27;20058;-59
2021/10/28 01:47:41;;;;;;;16.10;12.48;;;;;;;8.84;100.00;101899.16;10627508;27;20055;-59
2021/10/28 01:52:43;;;;;;;21.95;15.40;;;;;;;8.69;100.00;101904.00;10627937;27;20047;-60
2021/10/28 01:57:46;;;;;;;20.27;14.57;;;;;;;8.85;100.00;101903.50;10627461;27;20502;-59
2021/10/28 02:02:49;;;;;;;29.33;16.02;;;;;;;8.59;100.00;101896.50;10627535;27;20047;-59
2021/10/28 02:07:52;;;;;;;19.00;16.60;;;;;;;8.62;100.00;101899.00;10627171;27;20050;-59
2021/10/28 02:12:58;;;;;;;22.35;16.08;;;;;;;8.65;100.00;101889.31;10627003;27;20051;-60
2021/10/28 02:18:00;;;;;;;18.42;16.20;;;;;;;8.67;100.00;101879.69;10627178;27;20506;-59
2021/10/28 02:23:03;;;;;;;29.58;18.45;;;;;;;8.52;100.00;101881.03;10626856;27;20043;-58
2021/10/28 02:28:05;;;;;;;24.73;16.45;;;;;;;8.47;100.00;101876.84;10608414;27;20078;-58
2021/10/28 02:33:07;;;;;;;22.00;16.33;;;;;;;8.46;100.00;101877.78;10626218;27;20046;-58
2021/10/28 02:38:10;;;;;;;22.70;16.55;;;;;;;8.38;100.00;101864.91;10607704;27;20058;-59
2021/10/28 02:43:12;;;;;;;24.35;17.63;;;;;;;8.47;100.00;101862.06;10625884;27;20055;-61
2021/10/28 02:48:14;;;;;;;22.42;16.70;;;;;;;8.30;100.00;101854.69;10625419;27;20047;-58
2021/10/28 02:53:17;;;;;;;18.83;14.10;;;;;;;8.53;100.00;101851.41;10625353;27;20043;-59
2021/10/28 02:58:20;;;;;;;17.25;13.93;;;;;;;8.44;100.00;101840.41;10625015;27;20047;-61
2021/10/28 03:03:22;;;;;;;24.98;17.50;;;;;;;8.23;100.00;101836.69;10624927;27;20060;-59
2021/10/28 03:08:25;;;;;;;22.35;16.73;;;;;;;8.13;100.00;101833.50;10625168;27;20047;-58
2021/10/28 03:13:29;;;;;;;23.83;17.52;;;;;;;8.20;100.00;101829.81;10625346;27;20043;-59
2021/10/28 03:29:14;;;;;;;28.90;17.13;;;;;;;8.06;100.00;101811.13;10624219;27;20130;-59
2021/10/28 03:34:16;;;;;;;26.13;18.08;;;;;;;8.07;100.00;101813.69;10624790;28;20051;-58
2021/10/28 04:06:05;;;;;;;22.15;16.30;;;;;;;8.16;100.00;101789.06;10623565;28;20072;-59
2021/10/28 04:31:57;;;;;;;25.42;16.65;;;;;;;7.84;100.00;101770.06;10631425;27;20050;-58
2021/10/28 04:37:00;;;;;;;28.27;18.50;;;;;;;7.75;100.00;101773.81;10613040;27;20054;-59
2021/10/28 04:42:02;;;;;;;25.85;16.52;;;;;;;7.94;100.00;101773.25;10612484;27;20051;-58
2021/10/28 04:47:05;;;;;;;24.25;17.17;;;;;;;7.89;100.00;101777.75;10630528;27;20055;-59
2021/10/28 04:52:07;;;;;;;30.73;17.90;;;;;;;7.69;100.00;101771.38;10630162;27;20054;-58
2021/10/28 04:57:09;;;;;;;28.83;18.13;;;;;;;7.92;100.00;101769.84;10630355;27;20043;-60
2021/10/28 05:02:12;;;;;;;31.08;19.67;;;;;;;7.77;100.00;101774.59;10629615;27;20050;-58
2021/10/28 05:07:14;;;;;;;31.75;18.48;;;;;;;7.59;100.00;101775.16;10630012;27;20043;-60
2021/10/28 05:12:17;;;;;;;25.48;17.13;;;;;;;7.71;100.00;101776.53;10629444;27;20047;-59
2021/10/28 05:17:20;;;;;;;30.95;19.88;;;;;;;7.74;100.00;101773.84;10629377;27;20043;-58
2021/10/28 05:22:23;;;;;;;31.42;19.38;;;;;;;7.67;100.00;101770.56;10628852;27;20090;-58
2021/10/28 05:27:25;;;;;;;27.65;17.48;;;;;;;7.77;100.00;101777.22;10610886;27;20058;-58
2021/10/28 05:32:35;;;;;;;34.22;19.13;;;;;;;7.63;100.00;101768.94;10628544;27;20043;-57
2021/10/28 05:37:38;;;;;;;28.75;17.50;;;;;;;7.57;100.00;101763.91;10629265;27;20050;-60
2021/10/28 05:42:43;;;;;;;33.30;18.33;;;;;;;7.40;100.00;101749.63;10628371;27;20051;-58
2021/10/28 05:47:46;;;;;;;33.78;18.83;;;;;;;7.52;100.00;101751.00;10628553;27;20050;-59
2021/10/28 05:52:57;;;;;;;33.78;20.17;;;;;;;7.52;100.00;101739.75;10627733;27;20047;-57
2021/10/28 05:58:00;;;;;;;28.02;18.70;;;;;;;7.57;100.00;101730.03;10627514;27;20051;-60
2021/10/28 06:03:02;;;;;;;31.85;18.45;;;;;;;7.53;100.00;101729.28;10627376;27;20058;-58
2021/10/28 06:08:09;;;;;;;35.70;18.30;;;;;;;7.52;100.00;101729.31;10627119;27;20043;-59
2021/10/28 06:13:12;;;;;;;32.22;17.25;;;;;;;7.51;100.00;101730.22;10627415;27;20501;-58
2021/10/28 06:23:20;;;;;;;28.58;17.60;;;;;;;7.45;100.00;101728.66;10627023;27;20486;-58
2021/10/28 06:28:22;;;;;;;36.63;19.90;;;;;;;7.49;100.00;101732.03;10626463;27;20533;-60
2021/10/28 06:33:26;;;;;;;31.85;19.55;;;;;;;7.35;100.00;101732.44;10625101;27;20395;-58
2021/10/28 06:38:31;;;;;;;31.48;18.42;;;;;;;7.38;100.00;101727.09;10625962;27;20047;-57
2021/10/28 06:43:33;;;;;;;28.50;18.10;;;;;;;7.32;100.00;101722.09;10626251;27;20445;-57
2021/10/28 06:48:36;;;;;;;27.42;17.00;;;;;;;7.38;100.00;101732.31;10625514;27;20073;-59
2021/10/28 06:53:55;;;;;;;26.20;17.33;;;;;;;7.56;100.00;101734.38;10625281;27;20427;-59
2021/10/28 07:04:19;;;;;;;28.75;17.30;;;;;;;7.39;100.00;101714.03;10625195;27;20047;-58
2021/10/28 07:09:29;;;;;;;28.63;19.02;;;;;;;7.61;100.00;101726.44;10625043;27;20043;-57
2021/10/28 07:14:32;;;;;;;26.00;18.80;;;;;;;7.81;100.00;101718.84;10624701;27;20383;-58
2021/10/28 07:30:43;;;;;;;27.83;16.80;;;;;;;8.31;100.00;101720.75;10568407;27;20050;-58
2021/10/28 08:24:02;;;;;;;20.95;15.60;;;;;;;10.95;100.00;101703.63;10631375;27;20394;-58
2021/10/28 08:29:18;;;;;;;20.67;14.70;;;;;;;11.99;100.00;101698.88;10631270;27;20051;-58
2021/10/28 08:34:26;;;;;;;20.95;15.30;;;;;;;12.19;94.52;101695.28;10631193;27;20043;-58
2021/10/28 08:39:29;;;;;;;19.90;14.20;;;;;;;13.33;88.30;101690.22;10631408;27;20047;-59
2021/10/28 08:44:33;;;;;;;22.05;14.40;;;;;;;12.38;92.23;101697.81;10630823;27;20058;-58
2021/10/28 08:49:44;;;;;;;18.85;14.48;;;;;;;12.52;90.95;101689.22;10612427;27;20066;-59
2021/10/28 09:27:10;;;;;;;17.30;13.55;;;;;;;17.92;64.11;101635.19;10629193;27;20046;-60
2021/10/28 09:48:34;;;;;;;16.30;12.55;;;;;;;17.67;65.54;101609.66;10628143;27;20258;-58
2021/10/28 09:59:08;;;;;;;14.70;10.55;;;;;;;20.59;56.88;101591.47;10628120;27;20051;-59
2021/10/28 10:04:10;;;;;;;13.13;10.35;;;;;;;18.78;61.53;101588.78;10627849;27;20039;-59
2021/10/28 10:09:12;;;;;;;16.25;11.93;;;;;;;19.17;61.35;101583.06;10608015;27;20056;-59
2021/10/28 10:14:15;;;;;;;15.60;11.25;;;;;;;18.67;60.54;101578.19;10592093;27;20047;-59
2021/10/28 10:19:21;;;;;;;13.60;11.05;;;;;;;18.28;58.93;101565.28;10626834;27;20051;-59
2021/10/28 10:24:50;;;;;;;14.27;11.52;;;;;;;21.82;53.77;101560.09;10608464;27;20043;-59
2021/10/28 11:03:18;;;;;;;16.63;12.25;;;;;;;21.98;57.25;101504.34;10625282;27;20066;-59
2021/10/28 12:51:39;;;;;;;14.00;10.02;;;;;;;17.02;66.68;101339.28;10608646;27;20081;-60
2021/10/28 12:57:11;;;;;;;12.18;10.02;;;;;;;16.22;72.00;101335.44;10630209;27;20406;-60
2021/10/28 13:35:12;;;;;;;9.70;6.67;;;;;;;15.98;73.17;101303.72;10628806;27;20050;-61
2021/10/28 15:30:54;;;;;;;9.17;5.80;;;;;;;13.08;98.80;101211.34;10625356;27;20084;-60
2021/10/28 15:36:01;;;;;;;10.73;3.90;;;;;;;12.88;100.00;101204.69;10624498;28;20039;-60
2021/10/28 15:41:40;;;;;;;5.90;4.55;;;;;;;12.60;100.00;101195.84;10624190;28;20055;-60
2021/10/28 15:57:38;;;;;;;8.02;5.57;;;;;;;12.30;100.00;101188.84;10624477;28;20047;-61
2021/10/28 16:24:05;;;;;;;7.32;4.88;;;;;;;11.11;100.00;101186.69;10631590;27;20055;-59
2021/10/28 16:29:09;;;;;;;7.53;4.47;;;;;;;11.24;100.00;101166.75;10631378;27;20066;-59
2021/10/28 16:34:12;;;;;;;9.48;5.55;;;;;;;11.04;100.00;101177.47;10631333;27;20043;-59
2021/10/28 16:39:16;;;;;;;8.88;5.05;;;;;;;10.97;100.00;101179.56;10631054;27;20050;-60
2021/10/28 16:44:19;;;;;;;10.43;6.07;;;;;;;10.83;100.00;101175.06;10631590;27;20082;-60
2021/10/28 16:49:22;;;;;;;6.50;5.28;;;;;;;10.75;100.00;101169.38;10630182;27;20047;-62
2021/10/28 16:54:26;;;;;;;16.05;5.85;;;;;;;11.12;100.00;101173.50;10630804;27;20047;-61
2021/10/28 16:59:28;;;;;;;10.55;5.47;;;;;;;10.84;100.00;101178.50;10630237;27;20039;-59
2021/10/28 17:04:31;;;;;;;11.95;7.22;;;;;;;10.97;100.00;101183.00;10629874;27;20054;-60
2021/10/28 17:09:33;;;;;;;11.02;6.22;;;;;;;11.24;100.00;101176.41;10629679;27;20428;-60
2021/10/28 17:14:37;;;;;;;10.90;6.22;;;;;;;11.15;100.00;101164.63;10629471;27;20561;-59
2021/10/28 17:19:41;;;;;;;14.65;9.00;;;;;;;11.37;100.00;101151.19;10628944;27;20054;-59
2021/10/28 17:24:48;;;;;;;13.00;7.80;;;;;;;11.38;100.00;101160.78;10630059;27;20047;-61
2021/10/28 17:29:51;;;;;;;14.90;9.10;;;;;;;11.78;100.00;101153.28;10628999;27;20502;-59
2021/10/28 17:34:53;;;;;;;14.45;8.05;;;;;;;11.54;100.00;101147.66;10628786;27;20483;-59
2021/10/28 17:39:55;;;;;;;19.08;8.93;;;;;;;11.46;100.00;101152.47;10628930;27;20068;-59
2021/10/28 17:45:00;;;;;;;11.63;8.50;;;;;;;11.33;100.00;101150.53;10628603;27;20055;-60
2021/10/28 17:50:05;;;;;;;12.35;9.63;;;;;;;11.33;100.00;101139.19;10628516;27;20094;-60
2021/10/28 17:55:11;;;;;;;13.32;8.68;;;;;;;11.37;100.00;101147.75;10627884;27;20051;-59
2021/10/28 18:00:14;;;;;;;13.90;10.13;;;;;;;11.38;100.00;101146.78;10627593;27;20046;-60
2021/10/28 18:05:17;;;;;;;12.88;10.05;;;;;;;11.66;100.00;101151.34;10627794;27;20047;-59
2021/10/28 18:10:19;;;;;;;14.43;9.73;;;;;;;11.56;100.00;101153.63;10627630;27;20047;-59
2021/10/28 18:15:24;;;;;;;13.98;9.25;;;;;;;11.42;100.00;101154.41;10627528;27;20043;-61
2021/10/28 18:20:27;;;;;;;16.70;10.18;;;;;;;11.40;100.00;101150.16;10626692;27;20051;-59
2021/10/28 18:25:29;;;;;;;18.98;11.00;;;;;;;11.37;100.00;101145.97;10627481;27;20043;-60
2021/10/28 18:30:36;;;;;;;16.30;10.63;;;;;;;11.26;100.00;101143.94;10625533;27;20116;-60
2021/10/28 18:35:40;;;;;;;12.75;10.45;;;;;;;11.29;100.00;101153.41;10628219;27;20122;-58
2021/10/28 18:40:42;;;;;;;17.23;12.88;;;;;;;11.37;100.00;101145.13;10608008;27;20044;-61
2021/10/28 18:45:45;;;;;;;17.67;12.35;;;;;;;11.21;100.00;101139.84;10626427;27;20066;-61
2021/10/28 18:50:47;;;;;;;16.77;12.02;;;;;;;11.15;100.00;101136.66;10625657;27;20122;-59
2021/10/28 18:55:50;;;;;;;16.67;11.73;;;;;;;11.07;100.00;101133.59;10625712;27;20055;-60
2021/10/28 19:00:52;;;;;;;19.75;12.35;;;;;;;11.24;100.00;101139.69;10625094;27;20482;-61
2021/10/28 19:05:56;;;;;;;23.65;12.60;;;;;;;11.05;100.00;101132.00;10626032;27;20125;-60
2021/10/28 19:11:00;;;;;;;18.88;13.48;;;;;;;11.07;100.00;101128.34;10606701;27;20047;-58
2021/10/28 19:16:02;;;;;;;18.52;13.50;;;;;;;10.91;100.00;101125.72;10625463;27;20073;-59
2021/10/28 19:21:05;;;;;;;18.08;11.95;;;;;;;11.04;100.00;101128.50;10625361;27;20057;-60
2021/10/28 19:26:08;;;;;;;18.48;13.48;;;;;;;10.94;100.00;101122.09;10624589;27;20478;-58
2021/10/28 19:31:18;;;;;;;22.50;13.23;;;;;;;10.92;100.00;101123.94;10624392;27;20051;-60
2021/10/28 19:36:34;;;;;;;19.73;14.05;;;;;;;10.74;100.00;101118.78;10624369;28;20479;-59
2021/10/28 19:46:52;;;;;;;27.02;16.58;;;;;;;10.55;100.00;101112.78;10633454;27;20047;-59
2021/10/28 19:51:54;;;;;;;19.85;15.80;;;;;;;10.48;100.00;101114.88;10632586;27;20065;-60
2021/10/28 19:56:56;;;;;;;21.75;15.30;;;;;;;10.58;100.00;101112.63;10633165;27;20045;-58
2021/10/28 20:02:04;;;;;;;19.55;15.90;;;;;;;10.41;100.00;101113.53;10632426;27;20058;-59
2021/10/28 20:22:51;;;;;;;23.40;15.98;;;;;;;10.21;100.00;101088.34;10631758;27;20577;-59
2021/10/28 20:27:55;;;;;;;21.70;16.27;;;;;;;10.06;100.00;101092.56;10631617;27;20047;-59
2021/10/28 20:32:58;;;;;;;25.10;16.42;;;;;;;9.99;100.00;101086.81;10630933;27;20160;-58
2021/10/28 20:38:01;;;;;;;26.40;16.90;;;;;;;10.01;100.00;101079.72;10631339;27;20053;-59
2021/10/28 20:43:04;;;;;;;27.40;16.38;;;;;;;10.02;100.00;101091.06;10630949;27;20055;-61
2021/10/28 20:48:07;;;;;;;20.17;16.42;;;;;;;10.06;100.00;101079.50;10630878;27;20057;-59
2021/10/28 20:53:09;;;;;;;21.80;15.82;;;;;;;10.01;100.00;101091.97;10629406;27;20048;-60
2021/10/28 20:58:12;;;;;;;23.63;17.17;;;;;;;9.83;100.00;101084.13;10630168;27;20051;-59
2021/10/28 21:03:14;;;;;;;22.42;16.08;;;;;;;9.84;100.00;101087.56;10630367;27;20406;-59
2021/10/28 21:08:16;;;;;;;21.65;16.23;;;;;;;9.73;100.00;101080.25;10629807;27;20487;-60
2021/10/28 21:13:19;;;;;;;26.75;18.83;;;;;;;9.65;100.00;101064.13;10629791;27;20061;-59
2021/10/28 21:18:21;;;;;;;27.50;17.33;;;;;;;9.71;100.00;101062.97;10629797;27;20058;-58
2021/10/28 21:23:27;;;;;;;27.33;19.10;;;;;;;9.49;100.00;101057.00;10629510;27;20130;-59
2021/10/28 21:28:30;;;;;;;23.98;17.38;;;;;;;9.68;100.00;101058.72;10629645;27;20149;-59
2021/10/28 21:33:33;;;;;;;31.30;19.35;;;;;;;9.46;100.00;101057.19;10629348;27;20058;-59
2021/10/28 21:38:35;;;;;;;26.75;18.75;;;;;;;9.49;100.00;101049.16;10628711;27;20046;-59
2021/10/28 21:43:38;;;;;;;32.70;19.40;;;;;;;9.46;100.00;101056.31;10629026;27;20051;-59
2021/10/28 21:48:41;;;;;;;29.75;18.42;;;;;;;9.43;100.00;101046.88;10627970;27;20043;-58
2021/10/28 21:53:43;;;;;;;28.00;19.67;;;;;;;9.33;100.00;101040.41;10627919;27;20047;-58
2021/10/28 21:59:11;;;;;;;29.58;18.10;;;;;;;9.30;100.00;101043.16;10627716;27;20490;-59
2021/10/28 22:25:35;;;;;;;28.63;21.33;;;;;;;9.03;100.00;101030.47;10627629;27;20384;-59
2021/10/28 22:30:37;;;;;;;33.10;22.17;;;;;;;9.01;100.00;101018.41;10626405;27;20047;-58
2021/10/28 22:35:50;;;;;;;31.75;21.45;;;;;;;9.01;100.00;101016.66;10626189;27;20402;-58
2021/10/28 22:40:53;;;;;;;33.38;22.25;;;;;;;9.02;100.00;101017.50;10626111;27;20051;-58
2021/10/28 22:45:55;;;;;;;36.83;21.80;;;;;;;8.72;100.00;101018.88;10626705;27;20100;-59
2021/10/28 22:50:58;;;;;;;34.28;23.50;;;;;;;8.72;100.00;101011.03;10625709;27;20050;-58
2021/10/28 22:56:01;;;;;;;37.60;22.90;;;;;;;8.75;100.00;101002.19;10625756;27;20043;-60
2021/10/28 23:01:12;;;;;;;29.17;21.42;;;;;;;8.79;100.00;101006.34;10607268;27;20050;-58
2021/10/28 23:22:31;;;;;;;31.52;20.17;;;;;;;8.61;100.00;100978.47;10624327;27;20502;-58
2021/10/28 23:27:34;;;;;;;32.17;20.33;;;;;;;8.66;100.00;100973.94;10624579;27;20478;-60
2021/10/28 23:32:36;;;;;;;30.95;20.30;;;;;;;8.63;100.00;100974.06;10624310;27;20057;-58
2021/10/28 23:37:39;;;;;;;30.35;19.50;;;;;;;8.71;100.00;100972.78;10625061;27;20159;-58
2021/10/28 23:42:41;;;;;;;29.67;18.40;;;;;;;8.65;100.00;100972.22;10606132;28;20522;-59
2021/10/28 23:47:43;;;;;;;30.45;19.23;;;;;;;8.73;100.00;100970.09;10624311;28;20043;-58
2021/10/28 23:52:46;;;;;;;30.27;20.73;;;;;;;8.64;100.00;100965.28;10624206;28;20051;-60
2021/10/28 23:57:48;;;;;;;24.95;19.10;;;;;;;8.65;100.00;100951.34;10624085;28;20070;-58
